sensor_id;sensor_type;location;lat;lon;timestamp;P1;durP1;ratioP1;P2;durP2;ratioP2
6832;SDS011;3454;42.654;23.378;2024-02-21T00:00:37;5.53;;;3.90;;
6832;SDS011;3454;42.654;23.378;2024-02-21T00:03:04;4.93;;;3.40;;
6832;SDS011;3454;42.654;23.378;2024-02-21T00:05:30;6.10;;;4.33;;
6832;SDS011;3454;42.654;23.378;2024-02-21T00:07:55;4.00;;;3.60;;
6832;SDS011;3454;42.654;23.378;2024-02-21T00:10:24;4.80;;;3.70;;
6832;SDS011;3454;42.654;23.378;2024-02-21T00:12:50;6.13;;;3.90;;
6832;SDS011;3454;42.654;23.378;2024-02-21T00:15:15;6.30;;;3.97;;
6832;SDS011;3454;42.654;23.378;2024-02-21T00:17:41;5.77;;;3.77;;
6832;SDS011;3454;42.654;23.378;2024-02-21T00:20:07;6.17;;;4.03;;
6832;SDS011;3454;42.654;23.378;2024-02-21T00:22:33;6.70;;;4.93;;
6832;SDS011;3454;42.654;23.378;2024-02-21T00:24:59;8.47;;;6.07;;
6832;SDS011;3454;42.654;23.378;2024-02-21T00:27:24;5.33;;;3.73;;
6832;SDS011;3454;42.654;23.378;2024-02-21T00:29:50;5.43;;;4.20;;
6832;SDS011;3454;42.654;23.378;2024-02-21T00:32:16;5.87;;;4.17;;
6832;SDS011;3454;42.654;23.378;2024-02-21T00:34:41;4.40;;;3.77;;
6832;SDS011;3454;42.654;23.378;2024-02-21T00:37:07;4.10;;;3.63;;
6832;SDS011;3454;42.654;23.378;2024-02-21T00:39:32;5.20;;;3.80;;
6832;SDS011;3454;42.654;23.378;2024-02-21T00:41:58;6.67;;;4.43;;
6832;SDS011;3454;42.654;23.378;2024-02-21T00:44:23;5.17;;;3.43;;
6832;SDS011;3454;42.654;23.378;2024-02-21T00:46:49;5.03;;;3.67;;
6832;SDS011;3454;42.654;23.378;2024-02-21T00:49:17;5.20;;;4.20;;
6832;SDS011;3454;42.654;23.378;2024-02-21T00:51:43;6.07;;;3.60;;
6832;SDS011;3454;42.654;23.378;2024-02-21T00:54:08;7.20;;;4.57;;
6832;SDS011;3454;42.654;23.378;2024-02-21T00:56:34;4.63;;;3.30;;
6832;SDS011;3454;42.654;23.378;2024-02-21T00:59:00;4.67;;;3.50;;
6832;SDS011;3454;42.654;23.378;2024-02-21T01:01:26;5.47;;;3.83;;
6832;SDS011;3454;42.654;23.378;2024-02-21T01:03:52;5.10;;;3.90;;
6832;SDS011;3454;42.654;23.378;2024-02-21T01:06:21;4.33;;;3.40;;
6832;SDS011;3454;42.654;23.378;2024-02-21T01:08:47;5.27;;;4.00;;
6832;SDS011;3454;42.654;23.378;2024-02-21T01:11:13;4.47;;;3.00;;
6832;SDS011;3454;42.654;23.378;2024-02-21T01:13:39;4.73;;;3.77;;
6832;SDS011;3454;42.654;23.378;2024-02-21T01:16:05;4.93;;;3.80;;
6832;SDS011;3454;42.654;23.378;2024-02-21T01:18:32;3.87;;;3.30;;
6832;SDS011;3454;42.654;23.378;2024-02-21T01:20:58;4.97;;;3.57;;
6832;SDS011;3454;42.654;23.378;2024-02-21T01:23:24;5.57;;;4.13;;
6832;SDS011;3454;42.654;23.378;2024-02-21T01:25:49;6.43;;;4.10;;
6832;SDS011;3454;42.654;23.378;2024-02-21T01:28:15;4.73;;;3.70;;
6832;SDS011;3454;42.654;23.378;2024-02-21T01:30:41;4.50;;;3.57;;
6832;SDS011;3454;42.654;23.378;2024-02-21T01:33:07;4.53;;;3.80;;
6832;SDS011;3454;42.654;23.378;2024-02-21T01:35:34;7.10;;;4.43;;
6832;SDS011;3454;42.654;23.378;2024-02-21T01:38:00;5.23;;;3.57;;
6832;SDS011;3454;42.654;23.378;2024-02-21T01:40:25;6.63;;;4.30;;
6832;SDS011;3454;42.654;23.378;2024-02-21T01:42:51;4.53;;;3.70;;
6832;SDS011;3454;42.654;23.378;2024-02-21T01:45:20;6.23;;;4.17;;
6832;SDS011;3454;42.654;23.378;2024-02-21T01:47:45;6.33;;;4.13;;
6832;SDS011;3454;42.654;23.378;2024-02-21T01:50:11;5.97;;;4.37;;
6832;SDS011;3454;42.654;23.378;2024-02-21T01:52:39;6.00;;;4.17;;
6832;SDS011;3454;42.654;23.378;2024-02-21T01:55:05;5.30;;;4.20;;
6832;SDS011;3454;42.654;23.378;2024-02-21T01:57:32;5.33;;;4.10;;
6832;SDS011;3454;42.654;23.378;2024-02-21T01:59:58;6.40;;;4.50;;
6832;SDS011;3454;42.654;23.378;2024-02-21T02:02:24;4.70;;;3.83;;
6832;SDS011;3454;42.654;23.378;2024-02-21T02:04:49;5.00;;;4.03;;
6832;SDS011;3454;42.654;23.378;2024-02-21T02:07:16;5.97;;;4.00;;
6832;SDS011;3454;42.654;23.378;2024-02-21T02:09:42;7.50;;;4.63;;
6832;SDS011;3454;42.654;23.378;2024-02-21T02:12:08;5.27;;;4.47;;
6832;SDS011;3454;42.654;23.378;2024-02-21T02:14:34;7.57;;;4.50;;
6832;SDS011;3454;42.654;23.378;2024-02-21T02:16:59;7.37;;;4.47;;
6832;SDS011;3454;42.654;23.378;2024-02-21T02:19:25;6.23;;;4.23;;
6832;SDS011;3454;42.654;23.378;2024-02-21T02:21:51;7.63;;;5.07;;
6832;SDS011;3454;42.654;23.378;2024-02-21T02:24:22;6.30;;;5.20;;
6832;SDS011;3454;42.654;23.378;2024-02-21T02:26:51;7.60;;;5.20;;
6832;SDS011;3454;42.654;23.378;2024-02-21T02:29:16;8.30;;;5.80;;
6832;SDS011;3454;42.654;23.378;2024-02-21T02:31:43;8.67;;;5.80;;
6832;SDS011;3454;42.654;23.378;2024-02-21T02:34:08;10.97;;;6.13;;
6832;SDS011;3454;42.654;23.378;2024-02-21T02:36:35;8.97;;;6.07;;
6832;SDS011;3454;42.654;23.378;2024-02-21T02:39:01;8.67;;;6.27;;
6832;SDS011;3454;42.654;23.378;2024-02-21T02:41:27;9.83;;;7.20;;
6832;SDS011;3454;42.654;23.378;2024-02-21T02:43:52;9.73;;;6.57;;
6832;SDS011;3454;42.654;23.378;2024-02-21T02:46:18;7.77;;;5.50;;
6832;SDS011;3454;42.654;23.378;2024-02-21T02:48:43;8.73;;;6.33;;
6832;SDS011;3454;42.654;23.378;2024-02-21T02:51:10;7.70;;;5.90;;
6832;SDS011;3454;42.654;23.378;2024-02-21T02:53:35;9.30;;;5.93;;
6832;SDS011;3454;42.654;23.378;2024-02-21T02:56:01;9.00;;;6.50;;
6832;SDS011;3454;42.654;23.378;2024-02-21T02:58:26;8.40;;;6.27;;
6832;SDS011;3454;42.654;23.378;2024-02-21T03:00:54;10.67;;;6.77;;
6832;SDS011;3454;42.654;23.378;2024-02-21T03:03:19;9.03;;;6.90;;
6832;SDS011;3454;42.654;23.378;2024-02-21T03:05:45;8.80;;;6.40;;
6832;SDS011;3454;42.654;23.378;2024-02-21T03:08:11;9.93;;;6.30;;
6832;SDS011;3454;42.654;23.378;2024-02-21T03:10:36;9.87;;;6.67;;
6832;SDS011;3454;42.654;23.378;2024-02-21T03:13:02;9.13;;;6.37;;
6832;SDS011;3454;42.654;23.378;2024-02-21T03:15:28;9.63;;;6.40;;
6832;SDS011;3454;42.654;23.378;2024-02-21T03:17:54;10.53;;;7.07;;
6832;SDS011;3454;42.654;23.378;2024-02-21T03:20:19;10.77;;;7.27;;
6832;SDS011;3454;42.654;23.378;2024-02-21T03:22:45;10.10;;;6.57;;
6832;SDS011;3454;42.654;23.378;2024-02-21T03:25:11;9.50;;;6.03;;
6832;SDS011;3454;42.654;23.378;2024-02-21T03:27:37;9.63;;;7.00;;
6832;SDS011;3454;42.654;23.378;2024-02-21T03:30:03;11.23;;;7.00;;
6832;SDS011;3454;42.654;23.378;2024-02-21T03:32:29;11.13;;;6.70;;
6832;SDS011;3454;42.654;23.378;2024-02-21T03:34:55;10.47;;;7.17;;
6832;SDS011;3454;42.654;23.378;2024-02-21T03:37:21;10.97;;;7.77;;
6832;SDS011;3454;42.654;23.378;2024-02-21T03:39:46;9.57;;;6.60;;
6832;SDS011;3454;42.654;23.378;2024-02-21T03:42:12;9.40;;;6.70;;
6832;SDS011;3454;42.654;23.378;2024-02-21T03:44:37;11.83;;;7.87;;
6832;SDS011;3454;42.654;23.378;2024-02-21T03:47:03;10.53;;;7.43;;
6832;SDS011;3454;42.654;23.378;2024-02-21T03:49:29;9.70;;;7.03;;
6832;SDS011;3454;42.654;23.378;2024-02-21T03:51:54;11.50;;;7.40;;
6832;SDS011;3454;42.654;23.378;2024-02-21T03:54:20;10.20;;;6.83;;
6832;SDS011;3454;42.654;23.378;2024-02-21T03:56:52;9.47;;;6.63;;
6832;SDS011;3454;42.654;23.378;2024-02-21T03:59:18;8.90;;;6.30;;
6832;SDS011;3454;42.654;23.378;2024-02-21T04:01:44;11.07;;;7.20;;
6832;SDS011;3454;42.654;23.378;2024-02-21T04:04:09;11.93;;;6.90;;
6832;SDS011;3454;42.654;23.378;2024-02-21T04:06:35;11.93;;;8.13;;
6832;SDS011;3454;42.654;23.378;2024-02-21T04:09:01;11.03;;;7.40;;
6832;SDS011;3454;42.654;23.378;2024-02-21T04:11:28;10.67;;;7.00;;
6832;SDS011;3454;42.654;23.378;2024-02-21T04:13:53;10.13;;;7.23;;
6832;SDS011;3454;42.654;23.378;2024-02-21T04:16:19;12.20;;;7.90;;
6832;SDS011;3454;42.654;23.378;2024-02-21T04:18:44;12.27;;;6.93;;
6832;SDS011;3454;42.654;23.378;2024-02-21T04:21:10;12.40;;;7.67;;
6832;SDS011;3454;42.654;23.378;2024-02-21T04:23:35;11.20;;;7.53;;
6832;SDS011;3454;42.654;23.378;2024-02-21T04:26:01;9.90;;;6.67;;
6832;SDS011;3454;42.654;23.378;2024-02-21T04:28:27;12.20;;;7.77;;
6832;SDS011;3454;42.654;23.378;2024-02-21T04:30:52;11.43;;;7.13;;
6832;SDS011;3454;42.654;23.378;2024-02-21T04:33:18;12.23;;;7.37;;
6832;SDS011;3454;42.654;23.378;2024-02-21T04:35:43;10.53;;;7.47;;
6832;SDS011;3454;42.654;23.378;2024-02-21T04:38:09;14.03;;;8.33;;
6832;SDS011;3454;42.654;23.378;2024-02-21T04:40:35;11.73;;;7.80;;
6832;SDS011;3454;42.654;23.378;2024-02-21T04:43:00;11.37;;;7.40;;
6832;SDS011;3454;42.654;23.378;2024-02-21T04:45:26;14.33;;;8.60;;
6832;SDS011;3454;42.654;23.378;2024-02-21T04:47:51;11.97;;;7.93;;
6832;SDS011;3454;42.654;23.378;2024-02-21T04:50:17;13.23;;;8.20;;
6832;SDS011;3454;42.654;23.378;2024-02-21T04:52:43;12.77;;;8.70;;
6832;SDS011;3454;42.654;23.378;2024-02-21T04:55:08;13.10;;;8.87;;
6832;SDS011;3454;42.654;23.378;2024-02-21T04:57:34;12.13;;;7.93;;
6832;SDS011;3454;42.654;23.378;2024-02-21T04:59:59;11.30;;;7.53;;
6832;SDS011;3454;42.654;23.378;2024-02-21T05:02:25;11.37;;;7.73;;
6832;SDS011;3454;42.654;23.378;2024-02-21T05:04:52;11.80;;;8.30;;
6832;SDS011;3454;42.654;23.378;2024-02-21T05:07:17;11.73;;;8.53;;
6832;SDS011;3454;42.654;23.378;2024-02-21T05:09:44;15.87;;;8.33;;
6832;SDS011;3454;42.654;23.378;2024-02-21T05:12:11;13.30;;;8.23;;
6832;SDS011;3454;42.654;23.378;2024-02-21T05:14:36;12.77;;;7.80;;
6832;SDS011;3454;42.654;23.378;2024-02-21T05:17:02;10.97;;;6.87;;
6832;SDS011;3454;42.654;23.378;2024-02-21T05:19:31;12.00;;;8.37;;
6832;SDS011;3454;42.654;23.378;2024-02-21T05:21:56;12.03;;;8.17;;
6832;SDS011;3454;42.654;23.378;2024-02-21T05:24:22;12.87;;;8.13;;
6832;SDS011;3454;42.654;23.378;2024-02-21T05:26:47;11.13;;;7.80;;
6832;SDS011;3454;42.654;23.378;2024-02-21T05:29:15;11.47;;;8.53;;
6832;SDS011;3454;42.654;23.378;2024-02-21T05:34:18;14.03;;;8.73;;
6832;SDS011;3454;42.654;23.378;2024-02-21T05:36:44;10.43;;;7.73;;
6832;SDS011;3454;42.654;23.378;2024-02-21T05:39:11;12.20;;;7.93;;
6832;SDS011;3454;42.654;23.378;2024-02-21T05:41:36;11.33;;;7.47;;
6832;SDS011;3454;42.654;23.378;2024-02-21T05:44:03;12.27;;;7.27;;
6832;SDS011;3454;42.654;23.378;2024-02-21T05:46:30;12.43;;;7.97;;
6832;SDS011;3454;42.654;23.378;2024-02-21T05:48:56;13.00;;;8.97;;
6832;SDS011;3454;42.654;23.378;2024-02-21T05:51:21;19.60;;;10.53;;
6832;SDS011;3454;42.654;23.378;2024-02-21T05:53:47;15.50;;;10.40;;
6832;SDS011;3454;42.654;23.378;2024-02-21T05:56:13;20.73;;;10.40;;
6832;SDS011;3454;42.654;23.378;2024-02-21T05:58:40;18.83;;;9.93;;
6832;SDS011;3454;42.654;23.378;2024-02-21T06:01:06;18.20;;;10.23;;
6832;SDS011;3454;42.654;23.378;2024-02-21T06:03:32;17.53;;;10.23;;
6832;SDS011;3454;42.654;23.378;2024-02-21T06:05:58;20.83;;;11.10;;
6832;SDS011;3454;42.654;23.378;2024-02-21T06:08:24;20.40;;;10.70;;
6832;SDS011;3454;42.654;23.378;2024-02-21T06:10:50;16.13;;;10.10;;
6832;SDS011;3454;42.654;23.378;2024-02-21T06:13:26;15.97;;;9.40;;
6832;SDS011;3454;42.654;23.378;2024-02-21T06:15:52;16.10;;;9.60;;
6832;SDS011;3454;42.654;23.378;2024-02-21T06:18:18;16.00;;;10.13;;
6832;SDS011;3454;42.654;23.378;2024-02-21T06:20:44;14.90;;;9.43;;
6832;SDS011;3454;42.654;23.378;2024-02-21T06:23:11;14.60;;;8.97;;
6832;SDS011;3454;42.654;23.378;2024-02-21T06:25:37;11.60;;;8.87;;
6832;SDS011;3454;42.654;23.378;2024-02-21T06:28:04;16.23;;;9.00;;
6832;SDS011;3454;42.654;23.378;2024-02-21T06:30:30;18.73;;;9.77;;
6832;SDS011;3454;42.654;23.378;2024-02-21T06:32:56;14.30;;;9.53;;
6832;SDS011;3454;42.654;23.378;2024-02-21T06:35:22;17.53;;;10.67;;
6832;SDS011;3454;42.654;23.378;2024-02-21T06:37:50;16.60;;;9.87;;
6832;SDS011;3454;42.654;23.378;2024-02-21T06:40:17;14.00;;;9.80;;
6832;SDS011;3454;42.654;23.378;2024-02-21T06:42:43;18.90;;;10.53;;
6832;SDS011;3454;42.654;23.378;2024-02-21T06:45:08;13.10;;;9.43;;
6832;SDS011;3454;42.654;23.378;2024-02-21T06:47:35;15.90;;;8.80;;
6832;SDS011;3454;42.654;23.378;2024-02-21T06:50:00;13.50;;;9.33;;
6832;SDS011;3454;42.654;23.378;2024-02-21T06:52:26;18.83;;;9.47;;
6832;SDS011;3454;42.654;23.378;2024-02-21T06:54:52;18.03;;;10.00;;
6832;SDS011;3454;42.654;23.378;2024-02-21T06:57:17;16.87;;;10.77;;
6832;SDS011;3454;42.654;23.378;2024-02-21T06:59:43;15.30;;;10.47;;
6832;SDS011;3454;42.654;23.378;2024-02-21T07:02:09;19.63;;;10.70;;
6832;SDS011;3454;42.654;23.378;2024-02-21T07:04:34;14.97;;;9.50;;
6832;SDS011;3454;42.654;23.378;2024-02-21T07:07:00;19.80;;;11.13;;
6832;SDS011;3454;42.654;23.378;2024-02-21T07:09:26;21.23;;;10.63;;
6832;SDS011;3454;42.654;23.378;2024-02-21T07:11:53;19.23;;;11.67;;
6832;SDS011;3454;42.654;23.378;2024-02-21T07:14:19;21.73;;;13.77;;
6832;SDS011;3454;42.654;23.378;2024-02-21T07:16:45;20.90;;;13.27;;
6832;SDS011;3454;42.654;23.378;2024-02-21T07:19:10;21.50;;;12.73;;
6832;SDS011;3454;42.654;23.378;2024-02-21T07:21:36;19.33;;;12.53;;
6832;SDS011;3454;42.654;23.378;2024-02-21T07:24:07;22.33;;;13.43;;
6832;SDS011;3454;42.654;23.378;2024-02-21T07:26:33;26.67;;;13.83;;
6832;SDS011;3454;42.654;23.378;2024-02-21T07:28:59;24.17;;;13.50;;
6832;SDS011;3454;42.654;23.378;2024-02-21T07:31:24;20.27;;;12.90;;
6832;SDS011;3454;42.654;23.378;2024-02-21T07:33:50;16.47;;;11.53;;
6832;SDS011;3454;42.654;23.378;2024-02-21T07:36:15;21.77;;;13.37;;
6832;SDS011;3454;42.654;23.378;2024-02-21T07:38:42;19.37;;;12.23;;
6832;SDS011;3454;42.654;23.378;2024-02-21T07:41:16;22.27;;;11.57;;
6832;SDS011;3454;42.654;23.378;2024-02-21T07:43:43;16.20;;;9.83;;
6832;SDS011;3454;42.654;23.378;2024-02-21T07:46:08;21.90;;;11.93;;
6832;SDS011;3454;42.654;23.378;2024-02-21T07:48:34;16.90;;;11.47;;
6832;SDS011;3454;42.654;23.378;2024-02-21T07:51:00;18.20;;;10.60;;
6832;SDS011;3454;42.654;23.378;2024-02-21T07:53:25;17.87;;;10.27;;
6832;SDS011;3454;42.654;23.378;2024-02-21T07:55:51;16.77;;;11.90;;
6832;SDS011;3454;42.654;23.378;2024-02-21T07:58:21;16.63;;;10.50;;
6832;SDS011;3454;42.654;23.378;2024-02-21T08:00:47;16.47;;;10.97;;
6832;SDS011;3454;42.654;23.378;2024-02-21T08:03:13;18.20;;;10.67;;
6832;SDS011;3454;42.654;23.378;2024-02-21T08:05:40;15.83;;;10.20;;
6832;SDS011;3454;42.654;23.378;2024-02-21T08:08:06;16.43;;;10.33;;
6832;SDS011;3454;42.654;23.378;2024-02-21T08:10:33;16.90;;;11.17;;
6832;SDS011;3454;42.654;23.378;2024-02-21T08:13:05;15.53;;;10.13;;
6832;SDS011;3454;42.654;23.378;2024-02-21T08:15:31;15.93;;;10.50;;
6832;SDS011;3454;42.654;23.378;2024-02-21T08:17:57;18.23;;;12.70;;
6832;SDS011;3454;42.654;23.378;2024-02-21T08:20:24;18.70;;;12.37;;
6832;SDS011;3454;42.654;23.378;2024-02-21T08:22:51;21.00;;;12.47;;
6832;SDS011;3454;42.654;23.378;2024-02-21T08:25:17;18.90;;;11.13;;
6832;SDS011;3454;42.654;23.378;2024-02-21T08:27:43;18.57;;;10.60;;
6832;SDS011;3454;42.654;23.378;2024-02-21T08:30:10;16.33;;;10.07;;
6832;SDS011;3454;42.654;23.378;2024-02-21T08:32:37;17.53;;;11.87;;
6832;SDS011;3454;42.654;23.378;2024-02-21T08:35:03;17.77;;;11.30;;
6832;SDS011;3454;42.654;23.378;2024-02-21T08:37:30;18.77;;;10.37;;
6832;SDS011;3454;42.654;23.378;2024-02-21T08:39:55;17.53;;;11.30;;
6832;SDS011;3454;42.654;23.378;2024-02-21T08:42:21;15.07;;;10.43;;
6832;SDS011;3454;42.654;23.378;2024-02-21T08:44:47;13.90;;;9.23;;
6832;SDS011;3454;42.654;23.378;2024-02-21T08:47:12;17.30;;;10.73;;
6832;SDS011;3454;42.654;23.378;2024-02-21T08:49:38;19.37;;;9.30;;
6832;SDS011;3454;42.654;23.378;2024-02-21T08:52:04;13.43;;;8.63;;
6832;SDS011;3454;42.654;23.378;2024-02-21T08:54:30;13.17;;;8.30;;
6832;SDS011;3454;42.654;23.378;2024-02-21T08:56:57;13.10;;;8.30;;
6832;SDS011;3454;42.654;23.378;2024-02-21T08:59:23;14.07;;;10.10;;
6832;SDS011;3454;42.654;23.378;2024-02-21T09:01:50;12.53;;;8.93;;
6832;SDS011;3454;42.654;23.378;2024-02-21T09:04:17;17.23;;;9.23;;
6832;SDS011;3454;42.654;23.378;2024-02-21T09:06:43;14.03;;;9.30;;
6832;SDS011;3454;42.654;23.378;2024-02-21T09:09:10;13.63;;;9.33;;
6832;SDS011;3454;42.654;23.378;2024-02-21T09:11:35;14.93;;;9.87;;
6832;SDS011;3454;42.654;23.378;2024-02-21T09:14:01;15.57;;;10.17;;
6832;SDS011;3454;42.654;23.378;2024-02-21T09:16:30;17.20;;;8.87;;
6832;SDS011;3454;42.654;23.378;2024-02-21T09:18:57;12.83;;;8.63;;
6832;SDS011;3454;42.654;23.378;2024-02-21T09:21:22;13.00;;;8.70;;
6832;SDS011;3454;42.654;23.378;2024-02-21T09:23:48;12.43;;;9.00;;
6832;SDS011;3454;42.654;23.378;2024-02-21T09:26:14;11.67;;;8.43;;
6832;SDS011;3454;42.654;23.378;2024-02-21T09:28:42;12.83;;;9.20;;
6832;SDS011;3454;42.654;23.378;2024-02-21T09:31:11;14.43;;;9.20;;
6832;SDS011;3454;42.654;23.378;2024-02-21T09:33:37;13.40;;;9.17;;
6832;SDS011;3454;42.654;23.378;2024-02-21T09:36:02;14.40;;;8.97;;
6832;SDS011;3454;42.654;23.378;2024-02-21T09:38:30;12.23;;;8.43;;
6832;SDS011;3454;42.654;23.378;2024-02-21T09:41:02;14.10;;;9.50;;
6832;SDS011;3454;42.654;23.378;2024-02-21T09:43:36;14.53;;;8.47;;
6832;SDS011;3454;42.654;23.378;2024-02-21T09:46:05;13.63;;;9.20;;
6832;SDS011;3454;42.654;23.378;2024-02-21T09:51:34;12.10;;;8.60;;
6832;SDS011;3454;42.654;23.378;2024-02-21T09:54:03;14.37;;;9.03;;
6832;SDS011;3454;42.654;23.378;2024-02-21T09:56:29;13.93;;;9.10;;
6832;SDS011;3454;42.654;23.378;2024-02-21T09:58:55;13.57;;;10.00;;
6832;SDS011;3454;42.654;23.378;2024-02-21T10:01:22;14.23;;;9.57;;
6832;SDS011;3454;42.654;23.378;2024-02-21T10:03:47;12.17;;;8.37;;
6832;SDS011;3454;42.654;23.378;2024-02-21T10:06:13;10.93;;;7.80;;
6832;SDS011;3454;42.654;23.378;2024-02-21T10:08:38;15.77;;;9.87;;
6832;SDS011;3454;42.654;23.378;2024-02-21T10:11:04;18.60;;;11.77;;
6832;SDS011;3454;42.654;23.378;2024-02-21T10:13:30;11.43;;;8.20;;
6832;SDS011;3454;42.654;23.378;2024-02-21T10:16:02;9.20;;;7.07;;
6832;SDS011;3454;42.654;23.378;2024-02-21T10:18:29;10.30;;;7.60;;
6832;SDS011;3454;42.654;23.378;2024-02-21T10:21:05;12.67;;;7.80;;
6832;SDS011;3454;42.654;23.378;2024-02-21T10:23:50;9.23;;;6.90;;
6832;SDS011;3454;42.654;23.378;2024-02-21T10:26:19;10.10;;;7.07;;
6832;SDS011;3454;42.654;23.378;2024-02-21T10:28:45;10.83;;;7.63;;
6832;SDS011;3454;42.654;23.378;2024-02-21T10:31:22;10.97;;;7.53;;
6832;SDS011;3454;42.654;23.378;2024-02-21T10:33:58;10.17;;;7.73;;
6832;SDS011;3454;42.654;23.378;2024-02-21T10:36:30;10.10;;;7.57;;
6832;SDS011;3454;42.654;23.378;2024-02-21T10:38:57;11.57;;;7.63;;
6832;SDS011;3454;42.654;23.378;2024-02-21T10:41:23;10.20;;;6.93;;
6832;SDS011;3454;42.654;23.378;2024-02-21T10:43:50;7.00;;;5.57;;
6832;SDS011;3454;42.654;23.378;2024-02-21T10:46:20;7.33;;;5.90;;
6832;SDS011;3454;42.654;23.378;2024-02-21T10:48:47;11.27;;;6.47;;
6832;SDS011;3454;42.654;23.378;2024-02-21T10:51:18;10.50;;;6.53;;
6832;SDS011;3454;42.654;23.378;2024-02-21T10:58:49;8.43;;;6.13;;
6832;SDS011;3454;42.654;23.378;2024-02-21T11:01:15;9.53;;;6.00;;
6832;SDS011;3454;42.654;23.378;2024-02-21T11:03:43;10.33;;;6.80;;
6832;SDS011;3454;42.654;23.378;2024-02-21T11:06:11;8.17;;;6.40;;
6832;SDS011;3454;42.654;23.378;2024-02-21T11:08:38;6.80;;;5.50;;
6832;SDS011;3454;42.654;23.378;2024-02-21T11:11:04;8.70;;;6.23;;
6832;SDS011;3454;42.654;23.378;2024-02-21T11:13:37;6.90;;;6.20;;
6832;SDS011;3454;42.654;23.378;2024-02-21T11:16:09;7.70;;;5.97;;
6832;SDS011;3454;42.654;23.378;2024-02-21T11:18:36;7.87;;;6.30;;
6832;SDS011;3454;42.654;23.378;2024-02-21T11:21:06;6.50;;;5.30;;
6832;SDS011;3454;42.654;23.378;2024-02-21T11:23:31;9.50;;;6.30;;
6832;SDS011;3454;42.654;23.378;2024-02-21T11:26:07;9.13;;;6.83;;
6832;SDS011;3454;42.654;23.378;2024-02-21T11:28:44;6.63;;;5.07;;
6832;SDS011;3454;42.654;23.378;2024-02-21T11:31:13;9.50;;;6.00;;
6832;SDS011;3454;42.654;23.378;2024-02-21T11:33:39;4.90;;;3.40;;
6832;SDS011;3454;42.654;23.378;2024-02-21T11:36:07;4.63;;;3.60;;
6832;SDS011;3454;42.654;23.378;2024-02-21T11:38:33;5.93;;;3.40;;
6832;SDS011;3454;42.654;23.378;2024-02-21T11:40:59;5.63;;;3.40;;
6832;SDS011;3454;42.654;23.378;2024-02-21T11:43:24;5.30;;;3.73;;
6832;SDS011;3454;42.654;23.378;2024-02-21T11:45:50;6.27;;;3.87;;
6832;SDS011;3454;42.654;23.378;2024-02-21T11:48:23;6.47;;;4.10;;
6832;SDS011;3454;42.654;23.378;2024-02-21T11:50:55;4.13;;;3.73;;
6832;SDS011;3454;42.654;23.378;2024-02-21T11:53:22;4.00;;;2.97;;
6832;SDS011;3454;42.654;23.378;2024-02-21T11:55:49;4.03;;;3.60;;
6832;SDS011;3454;42.654;23.378;2024-02-21T11:58:15;5.30;;;3.70;;
6832;SDS011;3454;42.654;23.378;2024-02-21T12:00:42;6.30;;;3.50;;
6832;SDS011;3454;42.654;23.378;2024-02-21T12:03:08;4.97;;;3.73;;
6832;SDS011;3454;42.654;23.378;2024-02-21T12:05:34;4.90;;;3.97;;
6832;SDS011;3454;42.654;23.378;2024-02-21T12:08:00;4.43;;;3.20;;
6832;SDS011;3454;42.654;23.378;2024-02-21T12:10:26;6.07;;;4.00;;
6832;SDS011;3454;42.654;23.378;2024-02-21T12:13:10;4.50;;;3.73;;
6832;SDS011;3454;42.654;23.378;2024-02-21T12:15:38;4.70;;;3.60;;
6832;SDS011;3454;42.654;23.378;2024-02-21T12:18:05;4.30;;;3.53;;
6832;SDS011;3454;42.654;23.378;2024-02-21T12:20:31;7.50;;;4.00;;
6832;SDS011;3454;42.654;23.378;2024-02-21T12:23:01;6.73;;;4.40;;
6832;SDS011;3454;42.654;23.378;2024-02-21T12:25:28;4.93;;;3.77;;
6832;SDS011;3454;42.654;23.378;2024-02-21T12:27:54;6.17;;;4.30;;
6832;SDS011;3454;42.654;23.378;2024-02-21T12:30:21;5.83;;;4.03;;
6832;SDS011;3454;42.654;23.378;2024-02-21T12:32:47;6.17;;;4.37;;
6832;SDS011;3454;42.654;23.378;2024-02-21T12:35:13;6.53;;;4.47;;
6832;SDS011;3454;42.654;23.378;2024-02-21T12:37:39;8.27;;;4.77;;
6832;SDS011;3454;42.654;23.378;2024-02-21T12:40:06;7.33;;;4.60;;
6832;SDS011;3454;42.654;23.378;2024-02-21T12:42:34;7.73;;;4.67;;
6832;SDS011;3454;42.654;23.378;2024-02-21T12:45:00;5.07;;;3.90;;
6832;SDS011;3454;42.654;23.378;2024-02-21T12:47:25;5.93;;;3.97;;
6832;SDS011;3454;42.654;23.378;2024-02-21T12:49:52;4.90;;;3.80;;
6832;SDS011;3454;42.654;23.378;2024-02-21T12:52:18;6.53;;;4.50;;
6832;SDS011;3454;42.654;23.378;2024-02-21T12:54:44;6.03;;;4.47;;
6832;SDS011;3454;42.654;23.378;2024-02-21T12:57:09;5.20;;;3.77;;
6832;SDS011;3454;42.654;23.378;2024-02-21T12:59:35;5.20;;;3.97;;
6832;SDS011;3454;42.654;23.378;2024-02-21T13:02:00;5.33;;;4.17;;
6832;SDS011;3454;42.654;23.378;2024-02-21T13:04:26;6.23;;;4.47;;
6832;SDS011;3454;42.654;23.378;2024-02-21T13:06:51;5.57;;;4.20;;
6832;SDS011;3454;42.654;23.378;2024-02-21T13:09:17;6.97;;;4.40;;
6832;SDS011;3454;42.654;23.378;2024-02-21T13:11:44;6.93;;;4.33;;
6832;SDS011;3454;42.654;23.378;2024-02-21T13:14:11;7.47;;;5.57;;
6832;SDS011;3454;42.654;23.378;2024-02-21T13:16:37;11.57;;;5.77;;
6832;SDS011;3454;42.654;23.378;2024-02-21T13:19:06;9.07;;;5.53;;
6832;SDS011;3454;42.654;23.378;2024-02-21T13:21:36;6.40;;;4.90;;
6832;SDS011;3454;42.654;23.378;2024-02-21T13:24:01;6.10;;;4.93;;
6832;SDS011;3454;42.654;23.378;2024-02-21T13:26:27;7.80;;;4.20;;
6832;SDS011;3454;42.654;23.378;2024-02-21T13:28:53;6.10;;;4.97;;
6832;SDS011;3454;42.654;23.378;2024-02-21T13:31:19;7.70;;;4.77;;
6832;SDS011;3454;42.654;23.378;2024-02-21T13:33:46;7.97;;;4.97;;
6832;SDS011;3454;42.654;23.378;2024-02-21T13:36:11;7.70;;;5.10;;
6832;SDS011;3454;42.654;23.378;2024-02-21T13:38:37;8.40;;;5.50;;
6832;SDS011;3454;42.654;23.378;2024-02-21T13:41:07;6.43;;;4.83;;
6832;SDS011;3454;42.654;23.378;2024-02-21T13:43:33;9.03;;;4.37;;
6832;SDS011;3454;42.654;23.378;2024-02-21T13:45:59;6.10;;;5.03;;
6832;SDS011;3454;42.654;23.378;2024-02-21T13:48:26;6.80;;;5.20;;
6832;SDS011;3454;42.654;23.378;2024-02-21T13:50:55;6.67;;;4.77;;
6832;SDS011;3454;42.654;23.378;2024-02-21T13:53:21;5.43;;;4.50;;
6832;SDS011;3454;42.654;23.378;2024-02-21T13:55:48;6.03;;;4.20;;
6832;SDS011;3454;42.654;23.378;2024-02-21T13:58:14;5.87;;;4.17;;
6832;SDS011;3454;42.654;23.378;2024-02-21T14:00:41;7.50;;;5.30;;
6832;SDS011;3454;42.654;23.378;2024-02-21T14:03:06;9.27;;;4.63;;
6832;SDS011;3454;42.654;23.378;2024-02-21T14:05:32;5.47;;;4.27;;
6832;SDS011;3454;42.654;23.378;2024-02-21T14:07:57;7.10;;;4.57;;
6832;SDS011;3454;42.654;23.378;2024-02-21T14:10:23;7.33;;;5.23;;
6832;SDS011;3454;42.654;23.378;2024-02-21T14:12:49;6.77;;;4.73;;
6832;SDS011;3454;42.654;23.378;2024-02-21T14:15:15;5.70;;;4.40;;
6832;SDS011;3454;42.654;23.378;2024-02-21T14:17:41;4.20;;;3.53;;
6832;SDS011;3454;42.654;23.378;2024-02-21T14:20:07;4.60;;;3.83;;
6832;SDS011;3454;42.654;23.378;2024-02-21T14:22:34;6.73;;;4.17;;
6832;SDS011;3454;42.654;23.378;2024-02-21T14:25:00;6.00;;;4.27;;
6832;SDS011;3454;42.654;23.378;2024-02-21T14:27:26;5.43;;;3.93;;
6832;SDS011;3454;42.654;23.378;2024-02-21T14:29:51;3.90;;;3.13;;
6832;SDS011;3454;42.654;23.378;2024-02-21T14:32:18;4.60;;;3.20;;
6832;SDS011;3454;42.654;23.378;2024-02-21T14:34:45;7.67;;;4.07;;
6832;SDS011;3454;42.654;23.378;2024-02-21T14:37:10;8.47;;;4.23;;
6832;SDS011;3454;42.654;23.378;2024-02-21T14:39:36;6.40;;;4.10;;
6832;SDS011;3454;42.654;23.378;2024-02-21T14:42:02;7.47;;;4.63;;
6832;SDS011;3454;42.654;23.378;2024-02-21T14:44:28;6.00;;;4.00;;
6832;SDS011;3454;42.654;23.378;2024-02-21T14:46:53;6.53;;;4.50;;
6832;SDS011;3454;42.654;23.378;2024-02-21T14:49:19;7.23;;;4.97;;
6832;SDS011;3454;42.654;23.378;2024-02-21T14:51:45;5.87;;;4.83;;
6832;SDS011;3454;42.654;23.378;2024-02-21T14:54:10;9.67;;;4.80;;
6832;SDS011;3454;42.654;23.378;2024-02-21T14:56:36;7.47;;;4.40;;
6832;SDS011;3454;42.654;23.378;2024-02-21T14:59:02;6.23;;;4.23;;